Time;durP1;ratioP1;P1;durP2;ratioP2;P2;SDS_P1;SDS_P2;PMS_P1;PMS_P2;Temp;Humidity;BMP_temperature;BMP_pressure;BME280_temperature;BME280_humidity;BME280_pressure;Samples;Min_cycle;Max_cycle;Signal;HPM_P1;HPM_P2
2022/01/03 00:02:17;;;;;;;9.38;2.53;;;;;;;;;;5114775;28;20019;-81
2022/01/03 00:04:43;;;;;;;9.80;2.17;;;;;;;;;;5114556;28;20048;-79
2022/01/03 00:07:11;;;;;;;9.25;2.35;;;;;;;;;;5114032;28;20027;-80
2022/01/03 00:09:38;;;;;;;9.15;2.65;;;;;;;;;;5114440;28;20031;-80
2022/01/03 00:12:04;;;;;;;9.55;2.38;;;;;;;;;;5114366;28;20072;-80
2022/01/03 00:14:31;;;;;;;12.48;2.47;;;;;;;;;;5114270;28;20429;-80
2022/01/03 00:16:57;;;;;;;8.55;2.70;;;;;;;;;;5114220;28;20360;-81
2022/01/03 00:19:23;;;;;;;11.75;3.10;;;;;;;;;;5114274;28;20024;-80
2022/01/03 00:21:51;;;;;;;8.50;2.65;;;;;;;;;;5096166;28;20019;-80
2022/01/03 00:24:21;;;;;;;7.38;1.75;;;;;;;;;;5114491;28;20020;-81
2022/01/03 00:26:51;;;;;;;9.13;2.50;;;;;;;;;;5114352;28;20072;-81
2022/01/03 00:29:18;;;;;;;7.13;2.17;;;;;;;;;;5114319;28;20034;-81
2022/01/03 00:31:45;;;;;;;12.32;2.53;;;;;;;;;;5113992;28;20031;-81
2022/01/03 00:34:12;;;;;;;7.88;2.05;;;;;;;;;;5095672;28;20027;-82
2022/01/03 00:36:38;;;;;;;8.73;1.95;;;;;;;;;;5113928;28;20079;-80
2022/01/03 00:39:07;;;;;;;9.57;1.95;;;17.70;85.40;;;;;;5113913;28;20076;-80
2022/01/03 00:41:36;;;;;;;13.48;2.80;;;17.50;85.90;;;;;;5113825;28;20031;-81
2022/01/03 00:44:02;;;;;;;7.75;2.28;;;17.50;85.20;;;;;;5113602;28;20055;-81
2022/01/03 00:46:29;;;;;;;9.27;2.17;;;17.40;85.20;;;;;;5113659;28;20074;-81
2022/01/03 00:48:55;;;;;;;11.93;2.40;;;17.40;85.20;;;;;;5113143;28;20027;-80
2022/01/03 00:51:20;;;;;;;8.50;1.77;;;17.40;85.40;;;;;;5113563;28;20494;-80
2022/01/03 00:53:47;;;;;;;6.82;1.92;;;17.40;85.30;;;;;;5113880;28;20035;-80
2022/01/03 00:56:27;;;;;;;8.93;2.28;;;17.40;85.40;;;;;;5113538;28;20023;-81
2022/01/03 00:58:53;;;;;;;8.38;2.13;;;;;;;;;;5113560;28;20034;-81
2022/01/03 01:01:21;;;;;;;12.45;3.22;;;17.40;85.40;;;;;;5113721;28;20027;-80
2022/01/03 01:03:51;;;;;;;11.13;2.60;;;17.30;85.30;;;;;;5113643;28;20020;-80
2022/01/03 01:06:20;;;;;;;9.70;2.65;;;17.30;85.40;;;;;;5113677;28;20530;-80
2022/01/03 01:08:48;;;;;;;9.68;2.35;;;17.30;85.30;;;;;;5113346;28;20086;-81
2022/01/03 01:11:15;;;;;;;10.27;2.60;;;17.30;85.30;;;;;;5113282;28;20024;-81
2022/01/03 01:13:43;;;;;;;13.85;2.65;;;17.30;85.30;;;;;;5113166;28;20493;-82
2022/01/03 01:16:09;;;;;;;9.52;2.17;;;17.30;85.30;;;;;;5113088;28;20024;-81
2022/01/03 01:18:37;;;;;;;10.70;2.00;;;17.30;85.30;;;;;;5113103;28;20043;-81
2022/01/03 01:21:06;;;;;;;9.63;2.35;;;17.30;85.30;;;;;;5112957;28;20398;-82
2022/01/03 01:23:33;;;;;;;10.38;2.50;;;17.20;85.20;;;;;;5112851;28;20012;-81
2022/01/03 01:28:43;;;;;;;11.05;2.10;;;17.20;85.30;;;;;;5112721;28;20043;-81
2022/01/03 01:31:12;;;;;;;8.73;1.95;;;17.20;85.40;;;;;;5094399;28;20433;-81
2022/01/03 01:33:38;;;;;;;12.10;2.65;;;;;;;;;;5112852;28;20548;-82
2022/01/03 01:36:05;;;;;;;7.72;1.70;;;;;;;;;;5112741;28;20027;-82
2022/01/03 01:38:32;;;;;;;11.02;2.90;;;;;;;;;;5112722;28;20084;-81
2022/01/03 01:41:00;;;;;;;11.27;2.53;;;;;;;;;;5112747;28;20026;-81
2022/01/03 01:43:32;;;;;;;7.60;1.98;;;;;;;;;;5112427;28;20438;-82
2022/01/03 01:46:00;;;;;;;8.80;1.90;;;;;;;;;;5094216;28;20043;-82
2022/01/03 01:48:27;;;;;;;9.20;2.45;;;;;;;;;;5112604;28;20047;-81
2022/01/03 01:50:55;;;;;;;12.13;2.85;;;;;;;;;;5112527;28;20454;-81
2022/01/03 01:53:24;;;;;;;12.23;2.97;;;17.20;85.30;;;;;;5112617;28;20519;-80
2022/01/03 01:55:51;;;;;;;10.02;2.20;;;17.00;84.60;;;;;;5094379;28;20015;-82
2022/01/03 01:58:23;;;;;;;13.10;2.78;;;17.10;85.30;;;;;;5112728;28;20024;-82
2022/01/03 02:00:50;;;;;;;9.73;2.42;;;;;;;;;;5112064;28;20026;-81
2022/01/03 02:03:19;;;;;;;10.65;2.58;;;;;;;;;;5112195;28;20035;-81
2022/01/03 02:05:53;;;;;;;12.10;2.30;;;;;;;;;;5093925;28;20027;-81
2022/01/03 02:08:29;;;;;;;11.57;2.72;;;;;;;;;;5112562;28;20136;-83
2022/01/03 02:10:55;;;;;;;10.85;2.58;;;;;;;;;;5112370;28;20016;-83
2022/01/03 02:13:22;;;;;;;11.18;2.13;;;;;;;;;;5112651;28;20042;-84
2022/01/03 02:15:57;;;;;;;7.50;2.00;;;;;;;;;;5094322;28;20035;-83
2022/01/03 02:18:27;;;;;;;8.15;2.45;;;;;;;;;;5112287;28;20023;-81
2022/01/03 02:20:53;;;;;;;11.15;2.83;;;;;;;;;;5112156;28;20498;-80
2022/01/03 02:23:20;;;;;;;9.05;2.45;;;;;;;;;;5094044;28;20487;-83
2022/01/03 02:25:46;;;;;;;10.30;2.72;;;;;;;;;;5112187;28;20031;-82
2022/01/03 02:28:12;;;;;;;11.38;2.05;;;;;;;;;;5111930;28;20071;-83
2022/01/03 02:30:38;;;;;;;6.63;2.40;;;;;;;;;;5112030;28;20020;-84
2022/01/03 02:33:05;;;;;;;11.77;2.63;;;;;;;;;;5093856;28;20059;-83
2022/01/03 02:35:36;;;;;;;10.35;2.55;;;17.10;85.30;;;;;;5093691;28;20020;-82
2022/01/03 02:38:02;;;;;;;11.23;2.97;;;17.00;84.70;;;;;;5112007;28;20403;-81
2022/01/03 02:40:28;;;;;;;8.57;1.67;;;17.00;85.20;;;;;;5111964;28;20020;-80
2022/01/03 02:42:54;;;;;;;12.48;2.13;;;17.00;85.20;;;;;;5111977;28;20023;-81
2022/01/03 02:45:24;;;;;;;11.07;2.40;;;17.00;85.30;;;;;;5093790;28;20032;-81
2022/01/03 02:47:53;;;;;;;10.48;2.53;;;16.90;85.20;;;;;;5112090;28;20047;-80
2022/01/03 02:50:20;;;;;;;10.98;2.35;;;17.00;85.20;;;;;;5112205;28;20475;-82
2022/01/03 02:52:46;;;;;;;9.90;2.22;;;17.00;85.30;;;;;;5111683;28;20059;-82
2022/01/03 02:55:13;;;;;;;8.05;2.22;;;17.00;85.20;;;;;;5111772;28;20493;-81
2022/01/03 02:57:49;;;;;;;9.70;2.42;;;17.00;85.10;;;;;;5111790;28;20023;-81
2022/01/03 03:00:19;;;;;;;12.02;2.60;;;17.00;85.10;;;;;;5111781;28;20023;-82
2022/01/03 03:02:44;;;;;;;8.85;2.08;;;17.00;85.10;;;;;;5111773;28;20103;-81
2022/01/03 03:05:11;;;;;;;9.82;2.75;;;17.00;85.10;;;;;;5111744;28;20054;-81
2022/01/03 03:07:38;;;;;;;7.97;1.83;;;17.00;85.00;;;;;;5111596;28;20038;-82
2022/01/03 03:10:09;;;;;;;10.82;2.40;;;17.00;85.00;;;;;;5111687;28;20076;-81
2022/01/03 03:12:34;;;;;;;15.93;3.42;;;17.00;84.90;;;;;;5112527;28;20069;-81
2022/01/03 03:15:00;;;;;;;12.18;2.78;;;17.00;84.90;;;;;;5097135;28;20031;-81
2022/01/03 03:17:26;;;;;;;8.27;2.03;;;17.00;84.90;;;;;;5115347;28;20027;-81
2022/01/03 03:19:58;;;;;;;10.70;1.92;;;17.00;84.90;;;;;;5115804;28;20024;-81
2022/01/03 03:22:26;;;;;;;10.48;2.47;;;17.00;84.80;;;;;;5115348;28;20024;-80
2022/01/03 03:25:19;;;;;;;10.13;2.80;;;17.00;84.80;;;;;;5097371;28;20039;-82
2022/01/03 03:27:47;;;;;;;8.40;2.13;;;17.00;84.80;;;;;;5097603;28;20530;-81
2022/01/03 03:30:19;;;;;;;11.90;2.60;;;17.00;84.80;;;;;;5115250;28;20020;-82
2022/01/03 03:32:46;;;;;;;11.75;2.60;;;17.00;84.90;;;;;;5115023;28;20115;-81
2022/01/03 03:35:12;;;;;;;13.93;3.38;;;17.00;84.90;;;;;;5096756;28;20023;-81
2022/01/03 03:37:38;;;;;;;12.77;2.60;;;17.00;84.90;;;;;;5115034;28;20016;-81
2022/01/03 03:40:05;;;;;;;9.15;2.38;;;17.00;84.90;;;;;;5115154;28;20107;-83
2022/01/03 03:42:31;;;;;;;11.45;2.83;;;17.00;84.90;;;;;;5114995;28;20020;-81
2022/01/03 03:44:56;;;;;;;15.05;3.08;;;17.00;84.90;;;;;;5096497;28;20401;-81
2022/01/03 03:47:22;;;;;;;6.65;1.85;;;17.00;84.80;;;;;;5115064;28;20043;-81
2022/01/03 03:49:48;;;;;;;10.85;2.25;;;17.00;84.80;;;;;;5114802;28;20019;-80
2022/01/03 03:52:14;;;;;;;10.02;1.77;;;;;;;;;;5114872;28;20023;-81
2022/01/03 03:54:40;;;;;;;10.30;2.05;;;;;;;;;;5114468;28;20170;-80
2022/01/03 03:57:08;;;;;;;8.57;1.85;;;;;;;;;;5114508;28;20205;-81
2022/01/03 03:59:34;;;;;;;10.90;2.50;;;;;;;;;;5114543;28;20023;-81
2022/01/03 04:02:00;;;;;;;7.30;1.77;;;;;;;;;;5114335;28;20106;-81
2022/01/03 04:04:27;;;;;;;9.35;2.00;;;;;;;;;;5114466;28;20076;-80
2022/01/03 04:06:53;;;;;;;11.45;2.08;;;;;;;;;;5096359;28;20487;-81
2022/01/03 04:09:19;;;;;;;8.82;2.22;;;;;;;;;;5114455;28;20028;-81
2022/01/03 04:11:45;;;;;;;9.23;2.25;;;;;;;;;;5096343;28;20031;-81
2022/01/03 04:14:11;;;;;;;9.35;1.75;;;;;;;;;;5114454;28;20024;-80
2022/01/03 04:16:38;;;;;;;12.13;2.33;;;;;;;;;;5114312;28;20023;-80
2022/01/03 04:19:04;;;;;;;8.20;1.70;;;;;;;;;;5095951;28;20577;-80
2022/01/03 04:21:31;;;;;;;10.02;1.92;;;;;;;;;;5114332;28;20019;-80
2022/01/03 04:23:57;;;;;;;9.32;1.85;;;;;;;;;;5113087;28;20019;-80
2022/01/03 04:26:23;;;;;;;7.25;1.40;;;;;;;;;;5113247;28;20027;-80
2022/01/03 04:28:49;;;;;;;8.23;2.10;;;;;;;;;;5113383;28;20034;-80
2022/01/03 04:31:15;;;;;;;8.80;2.17;;;;;;;;;;5113140;28;20411;-81
2022/01/03 04:33:41;;;;;;;7.30;2.35;;;;;;;;;;5095139;28;20019;-81
2022/01/03 04:36:09;;;;;;;7.97;1.98;;;;;;;;;;5095032;28;20433;-81
2022/01/03 04:38:35;;;;;;;8.00;2.00;;;;;;;;;;5113395;28;20015;-81
2022/01/03 04:41:01;;;;;;;8.52;2.25;;;;;;;;;;5113068;28;20436;-81
2022/01/03 04:43:27;;;;;;;7.97;1.92;;;;;;;;;;5094842;28;20024;-81
2022/01/03 04:45:57;;;;;;;10.25;2.20;;;;;;;;;;5113624;28;20489;-81
2022/01/03 04:48:23;;;;;;;7.85;1.85;;;;;;;;;;5113285;28;20134;-81
2022/01/03 04:50:50;;;;;;;9.50;1.73;;;;;;;;;;5113043;28;20026;-81
2022/01/03 04:53:16;;;;;;;10.75;2.45;;;;;;;;;;5112612;28;20206;-81
2022/01/03 04:55:42;;;;;;;8.93;2.33;;;;;;;;;;5095046;28;20114;-81
2022/01/03 04:58:10;;;;;;;9.02;2.10;;;;;;;;;;5094310;28;20031;-81
2022/01/03 05:00:36;;;;;;;9.75;2.38;;;;;;;;;;5113042;28;20024;-81
2022/01/03 05:03:02;;;;;;;9.13;2.15;;;;;;;;;;5112526;28;20034;-81
2022/01/03 05:05:29;;;;;;;7.43;1.95;;;;;;;;;;5112896;28;20436;-82
2022/01/03 05:07:55;;;;;;;9.88;2.25;;;;;;;;;;5113029;28;20028;-80
2022/01/03 05:10:21;;;;;;;11.00;2.58;;;;;;;;;;5094289;28;20020;-81
2022/01/03 05:12:47;;;;;;;7.18;2.08;;;;;;;;;;5112596;28;20846;-80
2022/01/03 05:15:13;;;;;;;9.95;2.65;;;;;;;;;;5112323;28;20027;-80
2022/01/03 05:17:39;;;;;;;9.38;2.65;;;;;;;;;;5094429;28;20540;-81
2022/01/03 05:20:05;;;;;;;10.38;2.83;;;;;;;;;;5112272;28;20081;-80
2022/01/03 05:22:31;;;;;;;7.50;1.50;;;;;;;;;;5094322;28;20024;-80
2022/01/03 05:24:57;;;;;;;13.60;2.65;;;;;;;;;;5112909;28;20027;-80
2022/01/03 05:27:23;;;;;;;9.43;2.20;;;;;;;;;;5094317;28;20483;-81
2022/01/03 05:29:49;;;;;;;11.45;2.78;;;;;;;;;;5112442;28;20028;-80
2022/01/03 05:32:15;;;;;;;7.63;2.03;;;;;;;;;;5112065;28;20027;-80
2022/01/03 05:34:41;;;;;;;7.00;2.10;;;;;;;;;;5112310;28;20361;-81
2022/01/03 05:37:07;;;;;;;7.53;1.98;;;;;;;;;;5112077;28;20368;-81
2022/01/03 05:39:33;;;;;;;7.10;2.10;;;;;;;;;;5112245;28;20030;-80
2022/01/03 05:41:59;;;;;;;7.70;2.53;;;;;;;;;;5111913;28;20530;-79
2022/01/03 05:44:26;;;;;;;9.60;2.17;;;;;;;;;;5112393;28;20119;-82
2022/01/03 05:46:52;;;;;;;9.15;2.33;;;;;;;;;;5112111;28;20076;-82
2022/01/03 05:49:18;;;;;;;11.45;2.53;;;;;;;;;;5112291;28;20035;-81
2022/01/03 05:51:44;;;;;;;8.18;2.40;;;;;;;;;;5112130;28;20026;-81
2022/01/03 05:54:10;;;;;;;11.05;2.15;;;;;;;;;;5111811;28;20483;-81
2022/01/03 05:56:36;;;;;;;8.35;1.67;;;;;;;;;;5093549;28;20399;-81
2022/01/03 05:59:02;;;;;;;7.00;2.05;;;;;;;;;;5111737;28;20020;-81
2022/01/03 06:01:28;;;;;;;9.23;2.15;;;;;;;;;;5112118;28;20020;-79
2022/01/03 06:04:01;;;;;;;7.75;2.15;;;;;;;;;;5093968;28;20030;-80
2022/01/03 06:06:53;;;;;;;6.13;1.85;;;;;;;;;;5112256;28;20020;-80
2022/01/03 06:09:16;;;;;;;11.90;2.55;;;;;;;;;;5111396;28;20043;-80
2022/01/03 06:11:42;;;;;;;10.05;2.10;;;;;;;;;;5093471;28;20027;-80
2022/01/03 06:14:08;;;;;;;7.10;2.00;;;;;;;;;;5111543;28;20452;-80
2022/01/03 06:16:34;;;;;;;9.70;1.90;;;;;;;;;;5093406;28;20031;-80
2022/01/03 06:19:00;;;;;;;8.40;2.63;;;;;;;;;;5111290;28;20032;-80
2022/01/03 06:21:26;;;;;;;7.45;1.85;;;;;;;;;;5111847;28;20364;-81
2022/01/03 06:23:52;;;;;;;7.68;1.98;;;;;;;;;;5111718;28;20027;-81
2022/01/03 06:26:18;;;;;;;8.10;1.77;;;;;;;;;;5093301;28;20024;-79
2022/01/03 06:28:44;;;;;;;7.32;1.83;;;;;;;;;;5111405;28;20028;-79
2022/01/03 06:31:10;;;;;;;6.80;1.80;;;;;;;;;;5111243;28;20020;-79
2022/01/03 06:33:36;;;;;;;7.55;1.70;;;;;;;;;;5093369;28;20035;-79
2022/01/03 06:36:03;;;;;;;7.55;2.15;;;;;;;;;;5111148;28;20383;-83
2022/01/03 06:38:30;;;;;;;7.55;1.88;;;;;;;;;;5093533;28;20084;-77
2022/01/03 06:40:56;;;;;;;9.23;2.33;;;;;;;;;;5093575;28;20031;-79
2022/01/03 06:43:22;;;;;;;8.88;2.13;;;;;;;;;;5111209;28;20043;-78
2022/01/03 06:45:48;;;;;;;8.70;1.85;;;;;;;;;;5111451;28;20163;-80
2022/01/03 06:48:14;;;;;;;9.20;1.80;;;;;;;;;;5113255;28;20034;-78
2022/01/03 06:50:40;;;;;;;9.38;2.47;;;;;;;;;;5115512;28;20015;-79
2022/01/03 06:53:06;;;;;;;10.18;2.05;;;;;;;;;;5115358;28;20023;-80
2022/01/03 06:55:32;;;;;;;10.15;1.65;;;;;;;;;;5115385;28;20069;-80
2022/01/03 06:57:58;;;;;;;9.48;1.65;;;;;;;;;;5115365;28;20411;-78
2022/01/03 07:00:24;;;;;;;9.80;2.13;;;;;;;;;;5115572;28;20020;-79
2022/01/03 07:02:50;;;;;;;6.88;1.67;;;;;;;;;;5115224;28;20023;-79
2022/01/03 07:05:16;;;;;;;8.18;1.90;;;;;;;;;;5096606;28;20035;-79
2022/01/03 07:07:42;;;;;;;8.60;1.73;;;;;;;;;;5115231;28;20042;-79
2022/01/03 07:10:11;;;;;;;6.82;1.90;;;17.10;84.80;;;;;;5115001;27;20027;-75
2022/01/03 07:12:38;;;;;;;9.63;2.60;;;17.60;84.30;;;;;;5114998;28;20038;-78
2022/01/03 07:20:34;;;;;;;5.85;1.70;;;;;;;;;;5114836;28;20031;-77
2022/01/03 07:23:00;;;;;;;11.45;1.67;;;;;;;;;;5114586;28;20024;-77
2022/01/03 07:25:26;;;;;;;11.85;1.60;;;;;;;;;;5114508;28;20019;-79
2022/01/03 07:27:52;;;;;;;5.07;1.40;;;;;;;;;;5094835;28;20059;-79
2022/01/03 07:30:18;;;;;;;7.88;1.80;;;;;;;;;;5095468;28;20031;-78
2022/01/03 07:32:44;;;;;;;9.82;2.42;;;;;;;;;;5112870;27;20417;-79
2022/01/03 07:35:13;;;;;;;7.25;1.92;;;;;;;;;;5113831;28;20039;-80
2022/01/03 07:37:40;;;;;;;7.88;2.00;;;;;;;;;;5114600;28;20023;-79
2022/01/03 07:40:06;;;;;;;10.52;2.08;;;;;;;;;;5113646;28;20032;-78
2022/01/03 07:42:32;;;;;;;9.68;2.67;;;;;;;;;;5114395;28;20077;-79
2022/01/03 07:44:58;;;;;;;9.30;2.13;;;;;;;;;;5113781;28;20039;-78
2022/01/03 07:47:24;;;;;;;7.32;2.42;;;;;;;;;;5114230;28;20040;-79
2022/01/03 07:49:50;;;;;;;9.93;2.58;;;;;;;;;;5112416;28;20062;-77
2022/01/03 07:52:16;;;;;;;9.38;2.10;;;;;;;;;;5112363;28;20028;-77
2022/01/03 07:54:42;;;;;;;9.27;2.20;;;;;;;;;;5112781;27;20031;-77
2022/01/03 07:57:08;;;;;;;8.80;2.40;;;;;;;;;;5112609;28;20441;-78
2022/01/03 07:59:34;;;;;;;6.43;2.13;;;;;;;;;;5110718;28;20486;-77
2022/01/03 08:02:00;;;;;;;7.63;1.52;;;;;;;;;;5112062;28;20072;-77
2022/01/03 08:04:27;;;;;;;12.27;2.40;;;;;;;;;;5113913;28;20035;-78
2022/01/03 08:06:53;;;;;;;10.05;2.22;;;;;;;;;;5114026;28;20035;-77
2022/01/03 08:09:19;;;;;;;8.85;2.42;;;;;;;;;;5113784;28;20028;-77
2022/01/03 08:11:45;;;;;;;8.45;2.45;;;;;;;;;;5114022;28;20031;-77
2022/01/03 08:14:11;;;;;;;14.32;2.45;;;;;;;;;;5113190;28;20019;-78
2022/01/03 08:16:37;;;;;;;10.27;2.63;;;;;;;;;;5116134;28;20463;-76
2022/01/03 08:19:03;;;;;;;8.13;1.98;;;;;;;;;;5113740;28;20026;-76
2022/01/03 08:21:29;;;;;;;9.82;1.73;;;;;;;;;;5095640;28;20027;-76
2022/01/03 08:23:55;;;;;;;8.30;1.80;;;;;;;;;;5114062;28;20095;-76
2022/01/03 08:26:21;;;;;;;9.88;2.50;;;;;;;;;;5113463;28;20106;-78
2022/01/03 08:28:47;;;;;;;8.43;1.98;;;;;;;;;;5111646;28;20028;-78
2022/01/03 08:31:13;;;;;;;11.43;2.13;;;;;;;;;;5111739;28;20024;-78
2022/01/03 08:33:39;;;;;;;9.63;2.40;;;;;;;;;;5113183;28;20500;-79
2022/01/03 08:36:05;;;;;;;7.10;1.60;;;;;;;;;;5113209;28;20099;-77
2022/01/03 08:38:31;;;;;;;6.68;1.83;;;;;;;;;;5113434;28;20433;-79
2022/01/03 08:40:58;;;;;;;9.35;2.75;;;;;;;;;;5113651;28;20028;-75
2022/01/03 08:43:24;;;;;;;8.60;2.17;;;;;;;;;;5113593;28;20072;-76
2022/01/03 08:45:50;;;;;;;9.05;2.42;;;;;;;;;;5113444;28;20031;-78
2022/01/03 08:48:16;;;;;;;6.60;1.90;;;;;;;;;;5113067;28;20032;-77
2022/01/03 08:50:42;;;;;;;7.97;1.70;;;;;;;;;;5113255;28;20023;-76
2022/01/03 08:53:08;;;;;;;11.82;2.20;;;;;;;;;;5112212;28;20024;-77
2022/01/03 08:55:34;;;;;;;6.50;1.73;;;;;;;;;;5111686;28;20016;-77
2022/01/03 08:58:01;;;;;;;5.50;1.63;;;;;;;;;;5111375;28;20031;-76
2022/01/03 09:00:27;;;;;;;7.70;1.70;;;;;;;;;;5114093;27;20019;-76
2022/01/03 09:02:53;;;;;;;7.55;2.22;;;;;;;;;;5111966;28;20399;-75
2022/01/03 09:05:19;;;;;;;7.07;1.88;;;;;;;;;;5112554;28;20035;-77
2022/01/03 09:07:45;;;;;;;7.25;2.50;;;;;;;;;;5112839;28;20042;-77
2022/01/03 09:10:11;;;;;;;7.45;2.20;;;;;;;;;;5112122;28;20094;-76
2022/01/03 09:12:37;;;;;;;7.10;2.22;;;;;;;;;;5111257;28;20054;-76
2022/01/03 09:15:03;;;;;;;6.45;1.75;;;;;;;;;;5110864;28;20440;-77
2022/01/03 09:17:29;;;;;;;7.28;2.08;;;;;;;;;;5111135;28;20027;-76
2022/01/03 09:19:55;;;;;;;8.32;2.15;;;;;;;;;;5093105;28;20102;-77
2022/01/03 09:22:27;;;;;;;7.80;2.03;;;;;;;;;;5110819;28;20034;-77
2022/01/03 09:30:10;;;;;;;9.02;2.28;;;;;;;;;;5109414;28;20026;-75
2022/01/03 09:32:36;;;;;;;6.72;1.65;;;;;;;;;;5112370;28;20035;-77
2022/01/03 09:35:04;;;;;;;9.60;2.25;;;;;;;;;;5112144;28;20019;-76
2022/01/03 09:37:29;;;;;;;6.07;1.92;;;;;;;;;;5094026;28;20058;-76
2022/01/03 09:39:56;;;;;;;8.70;3.20;;;;;;;;;;5094347;28;20451;-76
2022/01/03 09:42:23;;;;;;;7.43;2.03;;;;;;;;;;5111894;28;20027;-76
2022/01/03 09:44:50;;;;;;;8.57;2.28;;;;;;;;;;5111665;28;20473;-76
2022/01/03 09:47:16;;;;;;;7.30;2.33;;;;;;;;;;5093415;28;20048;-76
2022/01/03 09:49:43;;;;;;;11.40;3.00;;;;;;;;;;5112040;28;20027;-75
2022/01/03 09:52:11;;;;;;;8.38;2.13;;;;;;;;;;5111739;28;20506;-77
2022/01/03 09:54:37;;;;;;;7.72;2.20;;;;;;;;;;5092207;28;20035;-76
2022/01/03 09:57:04;;;;;;;10.30;2.22;;;;;;;;;;5110192;28;20024;-76
2022/01/03 09:59:31;;;;;;;10.05;2.40;;;;;;;;;;5110685;28;20031;-77
2022/01/03 10:01:58;;;;;;;10.63;2.50;;;;;;;;;;5112223;28;20027;-77
2022/01/03 10:04:24;;;;;;;11.43;2.67;;;;;;;;;;5112292;28;20028;-77
2022/01/03 10:06:50;;;;;;;9.75;2.45;;;;;;;;;;5111805;28;20111;-76
2022/01/03 10:09:17;;;;;;;8.73;1.92;;;;;;;;;;5111583;28;20070;-76
2022/01/03 10:11:43;;;;;;;8.35;2.38;;;;;;;;;;5111765;28;20459;-76
2022/01/03 10:14:12;;;;;;;11.02;2.55;;;;;;;;;;5093229;28;20403;-76
2022/01/03 10:16:42;;;;;;;10.13;2.30;;;;;;;;;;5111731;28;20024;-76
2022/01/03 10:19:09;;;;;;;9.63;2.25;;;;;;;;;;5111430;28;20035;-76
2022/01/03 10:21:38;;;;;;;11.93;2.05;;;;;;;;;;5111380;28;20395;-75
2022/01/03 10:24:04;;;;;;;11.27;2.40;;;;;;;;;;5109496;28;20084;-76
2022/01/03 10:26:30;;;;;;;10.18;2.30;;;;;;;;;;5109984;28;20019;-76
2022/01/03 10:29:15;;;;;;;8.70;1.85;;;;;;;;;;5110194;28;20032;-77
2022/01/03 10:31:42;;;;;;;8.93;2.83;;;;;;;;;;5108946;28;20479;-77
2022/01/03 10:34:09;;;;;;;9.23;1.92;;;;;;;;;;5109558;28;20076;-76
2022/01/03 10:36:36;;;;;;;8.18;1.83;;;;;;;;;;5110058;28;20023;-78
2022/01/03 10:39:14;;;;;;;11.88;2.40;;;;;;;;;;5109590;28;20031;-77
2022/01/03 10:41:40;;;;;;;9.80;2.70;;;;;;;;;;5108691;28;20095;-77
2022/01/03 10:44:07;;;;;;;11.13;2.80;;;;;;;;;;5109394;28;20165;-77
2022/01/03 10:46:34;;;;;;;9.18;2.35;;;;;;;;;;5109761;28;20023;-76
2022/01/03 10:49:08;;;;;;;6.30;1.92;;;;;;;;;;5109442;28;20042;-76
2022/01/03 10:51:34;;;;;;;10.13;2.63;;;;;;;;;;5108340;28;20020;-76
2022/01/03 10:54:00;;;;;;;11.15;2.33;;;;;;;;;;5110632;28;20114;-77
2022/01/03 10:56:29;;;;;;;8.38;1.80;;;;;;;;;;5109932;28;20036;-76
2022/01/03 10:58:56;;;;;;;10.90;2.85;;;;;;;;;;5109874;28;20022;-79
2022/01/03 11:01:23;;;;;;;9.45;3.13;;;;;;;;;;5091751;28;20026;-78
2022/01/03 11:03:50;;;;;;;9.60;2.53;;;;;;;;;;5109983;28;20024;-78
2022/01/03 11:06:35;;;;;;;9.77;2.13;;;;;;;;;;5109836;28;20031;-76
2022/01/03 11:12:00;;;;;;;8.60;2.55;;;;;;;;;;5076469;28;20027;-78
2022/01/03 11:14:33;;;;;;;14.90;2.92;;;;;;;;;;5111406;28;20111;-79
2022/01/03 11:17:02;;;;;;;10.18;2.13;;;;;;;;;;5110169;28;20034;-78
2022/01/03 11:19:37;;;;;;;8.63;2.22;;;;;;;;;;5110526;28;20647;-78
2022/01/03 11:22:03;;;;;;;8.82;2.00;;;;;;;;;;5109828;28;20479;-78
2022/01/03 11:24:29;;;;;;;10.52;2.45;;;;;;;;;;5110041;28;20410;-78
2022/01/03 11:26:56;;;;;;;9.20;2.65;;;;;;;;;;5110217;28;20030;-79
2022/01/03 11:29:23;;;;;;;8.55;2.05;;;;;;;;;;5109882;28;20035;-79
2022/01/03 11:31:54;;;;;;;9.13;2.42;;;;;;;;;;5110572;28;20023;-78
2022/01/03 11:34:25;;;;;;;11.02;2.67;;;;;;;;;;5113115;28;20038;-79
2022/01/03 11:36:51;;;;;;;8.43;2.35;;;;;;;;;;5114804;28;20015;-79
2022/01/03 11:39:20;;;;;;;8.52;2.45;;;;;;;;;;5114350;28;20048;-78
2022/01/03 11:41:46;;;;;;;8.60;2.30;;;;;;;;;;5114570;28;20023;-78
2022/01/03 11:44:15;;;;;;;11.23;2.50;;;;;;;;;;5114483;28;20058;-77
2022/01/03 11:46:41;;;;;;;10.68;2.33;;;;;;;;;;5114437;28;20073;-78
2022/01/03 11:49:08;;;;;;;12.32;2.50;;;;;;;;;;5114164;28;20031;-78
2022/01/03 11:51:35;;;;;;;7.93;2.05;;;;;;;;;;5114478;28;20019;-77
2022/01/03 11:54:03;;;;;;;10.70;2.58;;;;;;;;;;5114181;28;20068;-78
2022/01/03 11:56:30;;;;;;;9.95;2.50;;;;;;;;;;5114392;28;20024;-77
2022/01/03 12:04:56;;;;;;;7.85;1.83;;;;;;;;;;5114374;28;20537;-77
2022/01/03 12:07:22;;;;;;;7.25;2.22;;;;;;;;;;5113806;28;20450;-78
2022/01/03 12:09:50;;;;;;;8.88;1.83;;;;;;;;;;5114125;28;20117;-79
2022/01/03 12:12:33;;;;;;;7.45;1.83;;;;;;;;;;5113669;28;20067;-76
2022/01/03 12:15:00;;;;;;;9.52;2.60;;;;;;;;;;5113831;28;20379;-77
2022/01/03 12:17:41;;;;;;;8.50;2.10;;;;;;;;;;5114176;28;20517;-78
2022/01/03 12:20:07;;;;;;;8.45;2.17;;;;;;;;;;5112435;28;20068;-75
2022/01/03 12:22:47;;;;;;;6.60;1.58;;;;;;;;;;5113131;28;20479;-77
2022/01/03 12:25:23;;;;;;;7.05;1.80;;;;;;;;;;5113557;28;20023;-77
2022/01/03 12:27:54;;;;;;;5.60;1.58;;;;;;;;;;5113661;28;20044;-78
2022/01/03 12:30:23;;;;;;;6.75;1.77;;;;;;;;;;5113326;28;20062;-77
2022/01/03 12:33:09;;;;;;;8.70;2.13;;;;;;;;;;5111956;28;20096;-76
2022/01/03 12:35:35;;;;;;;;;;;;;;;;;;5112749;28;20058;-78
2022/01/03 12:38:04;;;;;;;7.03;2.05;;;;;;;;;;5113214;28;19903;-76
2022/01/03 12:40:34;;;;;;;5.82;1.58;;;;;;;;;;5112138;28;20028;-78
2022/01/03 12:43:10;;;;;;;7.88;1.70;;;;;;;;;;5094963;28;20024;-77
2022/01/03 12:45:39;;;;;;;9.32;1.65;;;;;;;;;;5111983;28;20551;-79
2022/01/03 12:48:11;;;;;;;7.30;2.00;;;;;;;;;;5112037;28;20079;-78
2022/01/03 12:50:40;;;;;;;4.55;1.73;;;;;;;;;;5094843;28;20028;-79
2022/01/03 12:53:07;;;;;;;11.95;2.42;;;;;;;;;;5112858;28;20498;-79
2022/01/03 12:55:42;;;;;;;6.85;1.73;;;;;;;;;;5094732;28;20169;-78
2022/01/03 12:58:08;;;;;;;6.05;1.50;;;;;;;;;;5112691;28;20096;-79
2022/01/03 13:00:41;;;;;;;7.57;1.38;;;;;;;;;;5112974;28;20055;-79
2022/01/03 13:03:26;;;;;;;7.07;1.33;;;;;;;;;;5112221;28;20027;-78
2022/01/03 13:06:11;;;;;;;9.52;1.83;;;;;;;;;;5114025;27;20027;-79
2022/01/03 13:08:42;;;;;;;4.82;1.48;;;;;;;;;;5112409;27;20040;-79
2022/01/03 13:11:13;;;;;;;5.40;1.50;;;;;;;;;;5112466;28;20467;-80
2022/01/03 13:13:40;;;;;;;5.35;1.60;;;;;;;;;;5112689;28;20024;-79
2022/01/03 13:16:19;;;;;;;4.32;1.27;;;;;;;;;;5112556;28;20122;-79
2022/01/03 13:18:55;;;;;;;7.13;1.27;;;;;;;;;;5112648;28;20020;-79
2022/01/03 13:21:21;;;;;;;;;;;;;;;;;;5112832;28;20031;-79
2022/01/03 13:23:57;;;;;;;6.50;1.40;;;;;;;;;;5094457;28;20351;-78
2022/01/03 13:26:24;;;;;;;6.35;1.58;;;;;;;;;;5112862;28;20019;-79
2022/01/03 13:28:51;;;;;;;5.88;1.40;;;;;;;;;;5112393;28;20032;-79
2022/01/03 13:31:18;;;;;;;5.35;1.25;;;;;;;;;;5112184;28;20019;-78
2022/01/03 13:33:44;;;;;;;4.25;1.27;;;;;;;;;;5112488;28;20031;-79
2022/01/03 13:36:17;;;;;;;4.00;1.13;;;;;;;;;;5112185;28;20047;-78
2022/01/03 13:38:43;;;;;;;3.95;1.15;;;;;;;;;;5112372;28;20132;-78
2022/01/03 13:41:19;;;;;;;5.75;1.30;;;;;;;;;;5112022;28;20108;-79
2022/01/03 13:43:51;;;;;;;3.53;1.10;;;;;;;;;;5112137;28;20032;-78
2022/01/03 13:49:12;;;;;;;5.30;1.42;;;;;;;;;;5111723;28;20043;-79
2022/01/03 13:51:43;;;;;;;4.15;1.40;;;;;;;;;;5093770;28;20027;-78
2022/01/03 13:54:09;;;;;;;3.17;1.10;;;;;;;;;;5111516;28;20052;-79
2022/01/03 13:56:42;;;;;;;2.28;0.98;;;;;;;;;;5112066;28;20102;-79
2022/01/03 13:59:08;;;;;;;1.92;0.80;;;;;;;;;;5111674;28;20157;-79
2022/01/03 14:01:35;;;;;;;4.00;1.20;;;;;;;;;;5112005;28;20019;-78
2022/01/03 14:04:01;;;;;;;5.63;1.25;;;;;;;;;;5111745;28;20047;-78
2022/01/03 14:06:27;;;;;;;3.15;0.93;;;;;;;;;;5112213;28;20028;-79
2022/01/03 14:08:53;;;;;;;5.13;1.20;;;;;;;;;;5112082;28;20027;-78
2022/01/03 14:11:20;;;;;;;4.90;1.25;;;;;;;;;;5111637;28;20419;-77
2022/01/03 14:13:46;;;;;;;3.53;1.02;;;;;;;;;;5111773;28;20030;-77
2022/01/03 14:16:15;;;;;;;2.75;0.90;;;;;;;;;;5111086;28;20076;-78
2022/01/03 14:18:42;;;;;;;7.80;1.10;;;;;;;;;;5111778;28;20037;-79
2022/01/03 14:21:09;;;;;;;3.28;0.90;;;;;;;;;;5111512;28;20024;-78
2022/01/03 14:23:36;;;;;;;3.72;1.00;;;;;;;;;;5111698;28;20483;-78
2022/01/03 14:26:35;;;;;;;3.63;1.00;;;;;;;;;;5111397;28;20020;-78
2022/01/03 14:29:01;;;;;;;3.00;0.90;;;;;;;;;;5055888;28;20036;-78
2022/01/03 14:32:00;;;;;;;3.33;0.93;;;;;;;;;;5112036;28;20019;-77
2022/01/03 14:34:27;;;;;;;2.88;1.10;;;;;;;;;;5056962;28;20036;-79
2022/01/03 14:36:55;;;;;;;4.22;0.90;;;;;;;;;;5093541;28;20023;-78
2022/01/03 14:39:22;;;;;;;3.55;1.00;;;;;;;;;;5111115;28;20028;-78
2022/01/03 14:41:58;;;;;;;3.15;0.80;;;;;;;;;;5111394;28;20532;-79
2022/01/03 14:44:25;;;;;;;2.42;1.10;;;;;;;;;;5111480;28;20138;-78
2022/01/03 14:47:00;;;;;;;2.75;0.70;;;;;;;;;;5111446;28;20090;-79
2022/01/03 14:49:26;;;;;;;3.17;0.90;;;;;;;;;;5111819;28;20490;-77